CheckWX is a tool to help pilots better visualize weather data.  It is not intended as a substitute for an official pre-flight weather briefing.

18:13:34 UTC

3AU METAR
Augusta Municipal Airport
Augusta, Kansas, USA
Current

39 mins ago

K3AU 171735Z AUTO 31010G18KT 10SM SCT024 M02/M08 A2998 RMK AO2
Observed
Feb-17 @ 17:35 UTC
Wind
  • 310° at 10 KTS
  • Gusting to 18 KTS
Visibility
10 SM
Flight Rules
VFR
Cloud Levels
  • Scattered at 2,400' AGL
Temperature
-2°C / 28°F
Dewpoint
-8°C / 18°F
Humidity
64%
Altimeter
29.98" Hg
Pressure
1015.22 hPa
Previous

59 mins ago

K3AU 171715Z AUTO 31009G18KT 10SM SCT024 M02/M08 A2998 RMK AO2
Observed
Feb-17 @ 17:15 UTC
Wind
  • 310° at 9 KTS
  • Gusting to 18 KTS
Visibility
10 SM
Flight Rules
VFR
Cloud Levels
  • Scattered at 2,400' AGL
Temperature
-2°C / 28°F
Dewpoint
-8°C / 18°F
Humidity
64%
Altimeter
29.98" Hg
Pressure
1015.22 hPa
Previous

1 hour ago

K3AU 171655Z AUTO 32012G16KT 10SM CLR M02/M08 A2997 RMK AO2
Observed
Feb-17 @ 16:55 UTC
Wind
  • 320° at 12 KTS
  • Gusting to 16 KTS
Visibility
10 SM
Flight Rules
VFR
Cloud Levels
  • Clear skies
Temperature
-2°C / 28°F
Dewpoint
-8°C / 18°F
Humidity
64%
Altimeter
29.97" Hg
Pressure
1014.92 hPa